Vicksburg, Mississippi
Current Conditions -  °F | °C
As of 2:55 AM on Wednesday 22 Oct 2014 (Local Time) from KVKS Reporting Station
Overcast Overcast  
Wind Chill: 61°   Ceiling: 4100
Heat Index: 61°   Visibility: 10mi
Dew Point: 54°   Wind: 5mph
Humidity: 77%   Direction: 70°ENE
Pressure: 30.07"   Gusts: NA
Location:  32.35°N, 90.88°W
Report Text: KVKS 220755Z AUTO 07004KT 10SM SCT034 OVC041 16/12 A3007 RMK A01
Loading
Personal Weather Stations






























Interactive Weather Map
Tropical Storm Tracking
New forecast layout! Learn more

10-Day Weather Forecast

Advertisements
Track Severe Weather on mobile